Time;durP1;ratioP1;P1;durP2;ratioP2;P2;SDS_P1;SDS_P2;PMS_P1;PMS_P2;Temp;Humidity;BMP_temperature;BMP_pressure;BME280_temperature;BME280_humidity;BME280_pressure;Samples;Min_cycle;Max_cycle;Signal;HPM_P1;HPM_P2
2023/11/16 00:02:01;;;;;;;2.77;2.03;;;10.40;99.90;;;;;;5032876;28;20904;-76
2023/11/16 00:04:27;;;;;;;4.80;1.87;;;10.40;99.90;;;;;;5033036;28;20412;-77
2023/11/16 00:06:53;;;;;;;5.37;2.57;;;10.40;99.90;;;;;;5032965;28;20394;-78
2023/11/16 00:09:19;;;;;;;3.93;2.03;;;10.40;99.90;;;;;;5033036;28;20447;-76
2023/11/16 00:11:44;;;;;;;5.73;2.20;;;10.40;99.90;;;;;;5033251;28;20174;-76
2023/11/16 00:14:10;;;;;;;3.67;2.03;;;10.50;99.90;;;;;;5033549;28;20181;-77
2023/11/16 00:16:37;;;;;;;3.70;1.93;;;10.20;99.90;;;;;;5033002;28;20264;-76
2023/11/16 00:19:05;;;;;;;3.40;2.13;;;10.20;99.90;;;;;;5035878;28;20335;-77
2023/11/16 00:21:31;;;;;;;6.40;2.30;;;10.00;99.90;;;;;;5037747;28;20403;-77
2023/11/16 00:23:57;;;;;;;3.10;1.57;;;10.00;99.90;;;;;;5037777;28;20409;-77
2023/11/16 00:26:23;;;;;;;4.87;1.87;;;10.10;99.90;;;;;;5037398;28;20404;-77
2023/11/16 00:28:54;;;;;;;3.37;1.57;;;10.20;99.90;;;;;;5037182;28;20186;-77
2023/11/16 00:31:20;;;;;;;3.93;2.53;;;10.20;99.90;;;;;;5035684;28;20180;-77
2023/11/16 00:33:46;;;;;;;4.70;1.53;;;10.00;99.90;;;;;;5036844;28;20462;-77
2023/11/16 00:36:12;;;;;;;3.70;1.80;;;10.00;99.90;;;;;;5036982;28;20403;-77
2023/11/16 00:38:38;;;;;;;5.40;2.20;;;10.00;99.90;;;;;;5036500;28;20209;-77
2023/11/16 00:41:08;;;;;;;4.60;2.10;;;10.00;99.90;;;;;;5036537;28;20408;-77
2023/11/16 00:43:34;;;;;;;7.77;2.13;;;10.00;99.90;;;;;;5036661;28;20407;-77
2023/11/16 00:46:01;;;;;;;3.93;2.40;;;10.00;99.90;;;;;;5036790;28;20799;-78
2023/11/16 00:48:27;;;;;;;3.30;2.10;;;10.10;99.90;;;;;;5036874;28;21002;-77
2023/11/16 00:50:52;;;;;;;3.33;1.83;;;10.20;99.90;;;;;;5036392;28;20444;-77
2023/11/16 00:53:18;;;;;;;3.20;1.43;;;10.40;99.90;;;;;;5037273;28;20633;-76
2023/11/16 00:55:43;;;;;;;4.80;1.93;;;10.30;99.90;;;;;;5036904;28;20179;-76
2023/11/16 00:58:09;;;;;;;2.30;2.10;;;10.40;99.90;;;;;;5036726;28;20194;-79
2023/11/16 01:00:34;;;;;;;3.17;1.60;;;10.40;99.90;;;;;;5037141;28;20183;-77
2023/11/16 01:03:03;;;;;;;2.63;2.13;;;10.30;99.90;;;;;;5036363;28;20537;-78
2023/11/16 01:05:29;;;;;;;3.73;1.70;;;10.20;99.90;;;;;;5036560;28;20290;-78
2023/11/16 01:07:54;;;;;;;5.80;1.63;;;10.30;99.90;;;;;;5037389;28;20440;-77
2023/11/16 01:10:24;;;;;;;5.80;1.90;;;10.20;99.90;;;;;;5036475;28;20175;-77
2023/11/16 01:12:53;;;;;;;4.80;1.57;;;10.10;99.90;;;;;;5036436;28;20163;-77
2023/11/16 01:15:20;;;;;;;5.63;2.67;;;10.10;99.90;;;;;;5037240;28;20902;-78
2023/11/16 01:17:48;;;;;;;3.30;1.90;;;10.10;99.90;;;;;;5036813;28;20862;-78
2023/11/16 01:20:23;;;;;;;4.50;2.70;;;10.10;99.90;;;;;;5037257;28;20446;-78
2023/11/16 01:23:01;;;;;;;4.63;2.10;;;10.10;99.90;;;;;;5036402;28;20412;-78
2023/11/16 01:25:26;;;;;;;6.07;2.23;;;10.10;99.90;;;;;;5036398;28;20394;-77
2023/11/16 01:27:57;;;;;;;9.50;3.37;;;10.00;99.90;;;;;;5035309;28;20792;-77
2023/11/16 01:30:23;;;;;;;5.20;2.73;;;10.10;99.90;;;;;;5036136;28;20173;-77
2023/11/16 01:32:49;;;;;;;3.03;2.00;;;10.30;99.90;;;;;;5035701;28;20401;-77
2023/11/16 01:35:15;;;;;;;4.20;2.20;;;10.40;99.90;;;;;;5035574;28;20421;-77
2023/11/16 01:37:42;;;;;;;5.60;2.17;;;10.50;99.90;;;;;;5036194;28;20446;-78
2023/11/16 01:40:08;;;;;;;4.40;1.80;;;10.40;99.90;;;;;;5035734;28;20195;-77
2023/11/16 01:42:34;;;;;;;3.10;2.17;;;10.30;99.90;;;;;;5035859;28;20406;-77
2023/11/16 01:45:00;;;;;;;5.10;1.57;;;10.20;99.90;;;;;;5035947;28;20195;-77
2023/11/16 01:47:26;;;;;;;5.63;1.70;;;10.00;99.90;;;;;;5035659;28;20191;-78
2023/11/16 01:49:52;;;;;;;3.43;1.80;;;10.10;99.90;;;;;;5035655;28;20256;-77
2023/11/16 01:52:19;;;;;;;8.60;2.17;;;10.20;99.90;;;;;;5037273;28;20174;-78
2023/11/16 01:54:46;;;;;;;2.50;1.60;;;10.20;99.90;;;;;;5037109;28;20410;-78
2023/11/16 01:57:12;;;;;;;5.10;2.17;;;10.30;99.90;;;;;;5035865;28;20414;-78
2023/11/16 01:59:38;;;;;;;3.70;1.80;;;10.50;99.90;;;;;;5035893;28;20445;-77
2023/11/16 02:02:09;;;;;;;3.77;2.10;;;10.60;99.90;;;;;;5035833;28;20459;-79
2023/11/16 02:04:35;;;;;;;4.87;2.20;;;10.70;99.90;;;;;;5035954;28;20784;-78
2023/11/16 02:07:04;;;;;;;2.00;1.37;;;10.70;99.90;;;;;;5037138;28;20416;-77
2023/11/16 02:09:29;;;;;;;3.50;1.50;;;10.60;99.90;;;;;;5035789;28;20169;-78
2023/11/16 02:11:55;;;;;;;4.60;1.90;;;10.50;99.90;;;;;;5036447;28;20935;-78
2023/11/16 02:14:20;;;;;;;3.10;1.90;;;10.40;99.90;;;;;;5035722;28;20668;-78
2023/11/16 02:16:46;;;;;;;4.07;1.60;;;10.40;99.90;;;;;;5035452;28;20180;-77
2023/11/16 02:19:28;;;;;;;3.93;1.80;;;10.30;99.90;;;;;;5035239;28;20283;-78
2023/11/16 02:21:55;;;;;;;3.80;1.77;;;10.10;99.90;;;;;;5037516;28;20580;-77
2023/11/16 02:24:21;;;;;;;3.33;1.40;;;9.90;99.90;;;;;;5037562;28;20438;-77
2023/11/16 02:26:46;;;;;;;2.80;1.67;;;9.80;99.90;;;;;;5039102;28;20824;-77
2023/11/16 02:29:12;;;;;;;6.13;2.23;;;9.70;99.90;;;;;;5035308;28;20729;-77
2023/11/16 02:31:37;;;;;;;2.80;1.80;;;9.70;99.90;;;;;;5035172;28;20172;-77
2023/11/16 02:34:03;;;;;;;3.53;1.50;;;9.60;99.90;;;;;;5034983;28;20611;-77
2023/11/16 02:36:29;;;;;;;3.33;2.10;;;9.60;99.90;;;;;;5034990;28;20200;-77
2023/11/16 02:38:54;;;;;;;3.87;1.90;;;9.60;99.90;;;;;;5034279;28;20967;-77
2023/11/16 02:41:20;;;;;;;4.00;1.67;;;9.70;99.90;;;;;;5014448;28;20596;-77
2023/11/16 02:43:46;;;;;;;3.87;1.93;;;9.80;99.90;;;;;;5016355;28;20171;-76
2023/11/16 02:46:11;;;;;;;7.73;1.70;;;9.90;99.90;;;;;;5015061;28;20286;-78
2023/11/16 02:48:37;;;;;;;4.90;1.80;;;10.00;99.90;;;;;;5014900;28;20215;-76
2023/11/16 02:51:03;;;;;;;5.80;2.50;;;10.00;99.90;;;;;;5033141;28;20179;-77
2023/11/16 02:53:29;;;;;;;3.60;1.90;;;10.00;99.90;;;;;;5033665;28;20220;-77
2023/11/16 02:55:54;;;;;;;2.67;2.03;;;10.10;99.90;;;;;;5034421;28;20508;-77
2023/11/16 02:58:20;;;;;;;3.30;1.70;;;10.20;99.90;;;;;;5034717;28;20281;-77
2023/11/16 03:00:46;;;;;;;3.17;1.63;;;10.30;99.90;;;;;;5034347;28;20205;-78
2023/11/16 03:03:12;;;;;;;7.40;2.27;;;10.30;99.90;;;;;;5040894;28;20412;-77
2023/11/16 03:05:37;;;;;;;7.73;2.30;;;10.30;99.90;;;;;;5037901;28;20174;-77
2023/11/16 03:08:03;;;;;;;3.40;1.70;;;10.40;99.90;;;;;;5036183;28;20192;-77
2023/11/16 03:10:29;;;;;;;4.57;1.93;;;10.40;99.90;;;;;;5033905;28;20178;-78
2023/11/16 03:12:55;;;;;;;3.43;1.80;;;10.40;99.90;;;;;;5033655;28;20426;-77
2023/11/16 03:15:20;;;;;;;6.20;1.70;;;10.50;99.90;;;;;;5033595;28;20178;-77
2023/11/16 03:17:46;;;;;;;9.83;2.30;;;10.40;99.90;;;;;;5032544;28;20195;-77
2023/11/16 03:20:13;;;;;;;3.67;1.73;;;10.30;99.90;;;;;;5033595;28;20241;-77
2023/11/16 03:22:41;;;;;;;5.03;1.80;;;10.30;99.90;;;;;;5033622;28;20172;-76
2023/11/16 03:25:08;;;;;;;6.70;1.80;;;10.40;99.90;;;;;;5033511;28;20422;-77
2023/11/16 03:27:33;;;;;;;4.10;1.97;;;10.40;99.90;;;;;;5033634;28;20515;-77
2023/11/16 03:29:59;;;;;;;4.83;2.20;;;10.30;99.90;;;;;;5033579;28;20497;-77
2023/11/16 03:32:25;;;;;;;5.23;1.83;;;10.30;99.90;;;;;;5033816;28;20193;-77
2023/11/16 03:34:50;;;;;;;4.83;1.90;;;10.20;99.90;;;;;;5033712;28;20184;-77
2023/11/16 03:39:57;;;;;;;4.70;2.33;;;10.40;99.90;;;;;;5051522;28;20757;-77
2023/11/16 03:42:23;;;;;;;6.87;1.83;;;10.40;99.90;;;;;;5054079;28;20407;-77
2023/11/16 03:44:51;;;;;;;5.53;2.53;;;10.40;99.90;;;;;;5054971;28;20165;-77
2023/11/16 03:47:17;;;;;;;2.20;1.60;;;10.20;99.90;;;;;;5053210;28;20192;-77
2023/11/16 03:49:43;;;;;;;3.10;1.90;;;10.10;99.90;;;;;;5052924;28;20406;-77
2023/11/16 03:52:08;;;;;;;3.83;2.53;;;10.00;99.90;;;;;;5053191;28;20161;-76
2023/11/16 03:54:34;;;;;;;4.53;1.93;;;9.90;99.90;;;;;;5051687;28;20274;-76
2023/11/16 03:57:00;;;;;;;3.73;1.70;;;9.90;99.90;;;;;;5053393;28;20537;-76
2023/11/16 03:59:25;;;;;;;3.47;1.50;;;9.80;99.90;;;;;;5052875;28;20281;-77
2023/11/16 04:01:51;;;;;;;2.93;1.80;;;9.90;99.90;;;;;;5053070;28;20447;-76
2023/11/16 04:04:19;;;;;;;6.10;2.00;;;9.80;99.90;;;;;;5051716;28;20194;-76
2023/11/16 04:06:45;;;;;;;5.87;2.40;;;9.80;99.90;;;;;;5053319;28;20436;-77
2023/11/16 04:09:11;;;;;;;2.53;2.00;;;9.70;99.90;;;;;;5052860;28;20442;-77
2023/11/16 04:11:41;;;;;;;6.70;2.07;;;9.80;99.90;;;;;;5053310;28;20450;-77
2023/11/16 04:14:07;;;;;;;6.20;2.20;;;9.90;99.90;;;;;;5054751;28;20407;-77
2023/11/16 04:16:33;;;;;;;4.50;1.97;;;10.00;99.90;;;;;;5056369;28;20428;-77
2023/11/16 04:18:58;;;;;;;3.80;2.03;;;10.00;99.90;;;;;;5055958;28;20431;-77
2023/11/16 04:21:25;;;;;;;4.07;2.03;;;10.00;99.90;;;;;;5051261;28;20546;-76
2023/11/16 04:23:56;;;;;;;5.27;1.73;;;10.10;99.90;;;;;;5053035;28;20319;-77
2023/11/16 04:26:31;;;;;;;4.57;2.40;;;10.10;99.90;;;;;;5053133;28;20395;-77
2023/11/16 04:29:00;;;;;;;3.00;1.80;;;10.10;99.90;;;;;;5053201;28;20427;-77
2023/11/16 04:31:26;;;;;;;5.10;1.90;;;10.20;99.90;;;;;;5051890;28;20784;-77
2023/11/16 04:33:51;;;;;;;3.83;1.77;;;10.20;99.90;;;;;;5052877;28;20409;-76
2023/11/16 04:36:18;;;;;;;4.97;2.30;;;10.20;99.90;;;;;;5052950;28;20174;-77
2023/11/16 04:38:46;;;;;;;4.70;1.80;;;10.20;99.90;;;;;;5051490;28;20220;-77
2023/11/16 04:41:13;;;;;;;4.40;2.10;;;10.20;99.90;;;;;;5052702;28;20409;-77
2023/11/16 04:43:40;;;;;;;5.20;2.23;;;10.10;99.90;;;;;;5052828;28;20406;-77
2023/11/16 04:46:06;;;;;;;3.37;2.10;;;10.10;99.90;;;;;;5052779;28;20794;-77
2023/11/16 04:48:35;;;;;;;3.27;2.03;;;10.20;99.90;;;;;;5052541;28;20419;-76
2023/11/16 04:51:03;;;;;;;6.10;2.20;;;10.10;99.90;;;;;;5051279;28;20455;-77
2023/11/16 04:53:29;;;;;;;3.73;2.00;;;10.20;99.90;;;;;;5052658;28;20455;-76
2023/11/16 04:55:57;;;;;;;6.67;2.57;;;10.30;99.90;;;;;;5053064;28;20865;-77
2023/11/16 04:58:23;;;;;;;4.53;2.20;;;10.30;99.90;;;;;;5051360;28;20283;-76
2023/11/16 05:00:48;;;;;;;3.70;1.70;;;10.30;99.90;;;;;;5052412;28;20819;-77
2023/11/16 05:03:14;;;;;;;4.20;2.03;;;10.30;99.90;;;;;;5053582;28;20405;-76
2023/11/16 05:05:39;;;;;;;4.50;2.07;;;10.20;99.90;;;;;;5056743;28;20172;-77
2023/11/16 05:08:05;;;;;;;3.23;2.03;;;10.30;99.90;;;;;;5055988;28;20192;-77
2023/11/16 05:10:31;;;;;;;3.40;1.80;;;10.30;99.90;;;;;;5056136;28;20219;-77
2023/11/16 05:12:57;;;;;;;7.80;2.73;;;10.30;99.90;;;;;;5056329;28;20775;-77
2023/11/16 05:15:22;;;;;;;6.40;2.63;;;10.20;99.90;;;;;;5056110;28;20182;-77
2023/11/16 05:17:48;;;;;;;4.47;1.80;;;10.30;99.90;;;;;;5054582;28;20207;-77
2023/11/16 05:20:16;;;;;;;8.20;2.30;;;10.30;99.90;;;;;;5055907;28;20221;-77
2023/11/16 05:22:41;;;;;;;5.47;1.80;;;10.30;99.90;;;;;;5054531;28;20178;-76
2023/11/16 05:25:07;;;;;;;4.43;1.80;;;10.10;99.90;;;;;;5054976;28;20745;-76
2023/11/16 05:27:33;;;;;;;4.70;2.17;;;10.10;99.90;;;;;;5056050;28;20542;-77
2023/11/16 05:29:59;;;;;;;2.73;1.60;;;10.10;99.90;;;;;;5055965;28;20933;-77
2023/11/16 05:32:25;;;;;;;5.10;2.10;;;10.10;99.90;;;;;;5055724;28;20412;-77
2023/11/16 05:34:51;;;;;;;6.53;2.80;;;10.10;99.90;;;;;;5054834;28;20185;-78
2023/11/16 05:37:18;;;;;;;5.07;1.47;;;10.10;99.90;;;;;;5045694;28;20217;-77
2023/11/16 05:39:45;;;;;;;6.30;2.63;;;10.10;99.90;;;;;;5046067;28;20484;-79
2023/11/16 05:42:10;;;;;;;5.03;2.23;;;10.10;99.90;;;;;;5050332;28;20511;-78
2023/11/16 05:44:36;;;;;;;3.50;1.97;;;10.10;99.90;;;;;;5057181;28;20172;-77
2023/11/16 05:47:03;;;;;;;4.63;2.17;;;10.00;99.90;;;;;;5059006;28;20210;-78
2023/11/16 05:49:28;;;;;;;6.23;2.00;;;10.00;99.90;;;;;;5068425;28;20229;-77
2023/11/16 05:51:54;;;;;;;4.83;2.27;;;9.90;99.90;;;;;;5049206;28;20411;-80
2023/11/16 05:54:23;;;;;;;5.23;2.10;;;9.80;99.90;;;;;;5049222;28;20189;-79
2023/11/16 05:56:48;;;;;;;4.97;2.27;;;9.80;99.90;;;;;;5048933;28;20176;-79
2023/11/16 05:59:14;;;;;;;7.63;2.70;;;9.80;99.90;;;;;;5047010;28;20519;-81
2023/11/16 06:01:44;;;;;;;6.13;2.47;;;9.90;99.90;;;;;;5048861;28;20177;-78
2023/11/16 06:04:10;;;;;;;6.27;2.10;;;10.00;99.90;;;;;;5056692;28;20404;-78
2023/11/16 06:06:36;;;;;;;6.80;1.83;;;10.00;99.90;;;;;;5056866;28;20534;-77
2023/11/16 06:09:03;;;;;;;6.87;2.40;;;9.90;99.90;;;;;;5057016;28;20191;-78
2023/11/16 06:11:29;;;;;;;5.17;2.60;;;10.00;99.90;;;;;;5058221;28;20177;-78
2023/11/16 06:13:58;;;;;;;4.10;2.33;;;10.10;99.90;;;;;;5056909;28;20496;-78
2023/11/16 06:16:24;;;;;;;7.47;2.90;;;10.10;99.90;;;;;;5055527;28;20194;-76
2023/11/16 06:18:53;;;;;;;6.43;2.37;;;10.00;99.90;;;;;;5055749;28;20503;-77
2023/11/16 06:21:19;;;;;;;6.10;2.60;;;10.10;99.90;;;;;;5057827;28;20499;-78
2023/11/16 06:23:45;;;;;;;6.63;2.73;;;9.90;99.90;;;;;;5057438;28;20418;-78
2023/11/16 06:26:11;;;;;;;2.97;2.30;;;9.90;99.90;;;;;;5063990;28;20473;-78
2023/11/16 06:28:36;;;;;;;3.40;2.27;;;9.90;99.90;;;;;;5063890;28;20235;-78
2023/11/16 06:31:02;;;;;;;4.43;2.13;;;9.90;99.90;;;;;;5059891;28;20271;-78
2023/11/16 06:33:28;;;;;;;5.07;2.30;;;9.90;99.90;;;;;;5058120;28;20236;-77
2023/11/16 06:35:53;;;;;;;3.20;2.17;;;9.80;99.90;;;;;;5055525;28;20177;-78
2023/11/16 06:38:19;;;;;;;6.80;2.20;;;9.70;99.90;;;;;;5053436;28;20292;-77
2023/11/16 06:40:45;;;;;;;5.50;2.63;;;9.60;99.90;;;;;;5053431;28;20581;-77
2023/11/16 06:43:12;;;;;;;4.13;2.23;;;9.70;99.90;;;;;;5055830;28;20170;-76
2023/11/16 06:45:40;;;;;;;4.50;2.73;;;9.70;99.90;;;;;;5054062;28;20406;-77
2023/11/16 06:48:07;;;;;;;6.90;2.57;;;9.70;99.90;;;;;;5056358;28;20460;-77
2023/11/16 06:50:38;;;;;;;6.53;2.30;;;9.70;99.90;;;;;;5054912;28;20977;-78
2023/11/16 06:53:06;;;;;;;10.73;3.40;;;9.90;99.90;;;;;;5055152;28;20392;-77
2023/11/16 06:55:35;;;;;;;8.40;2.57;;;9.80;99.90;;;;;;5055652;28;20414;-77
2023/11/16 06:58:06;;;;;;;5.07;1.97;;;9.90;99.90;;;;;;5054830;28;20439;-77
2023/11/16 07:00:32;;;;;;;6.23;2.50;;;9.90;99.90;;;;;;5054348;28;20895;-77
2023/11/16 07:02:57;;;;;;;5.17;3.00;;;9.90;99.90;;;;;;5055308;28;20445;-76
2023/11/16 07:05:23;;;;;;;4.33;2.83;;;9.80;99.90;;;;;;5055417;28;20169;-78
2023/11/16 07:07:49;;;;;;;5.70;2.70;;;9.80;99.90;;;;;;5055860;28;20191;-77
2023/11/16 07:10:15;;;;;;;5.43;2.30;;;9.80;99.90;;;;;;5052899;28;20261;-77
2023/11/16 07:12:42;;;;;;;10.30;2.60;;;9.80;99.90;;;;;;5055272;28;20917;-76
2023/11/16 07:15:12;;;;;;;6.20;2.67;;;9.70;99.90;;;;;;5055064;28;20405;-77
2023/11/16 07:17:39;;;;;;;5.50;2.43;;;9.80;99.90;;;;;;5053438;28;20415;-77
2023/11/16 07:20:06;;;;;;;4.07;2.33;;;9.90;99.90;;;;;;5053901;28;20443;-77
2023/11/16 07:22:32;;;;;;;3.40;2.77;;;10.10;99.90;;;;;;5053049;28;20408;-77
2023/11/16 07:24:58;;;;;;;5.07;2.13;;;10.10;99.90;;;;;;5063352;28;20418;-77
2023/11/16 07:27:23;;;;;;;5.00;2.60;;;10.20;99.90;;;;;;5060015;28;20427;-76
2023/11/16 07:29:49;;;;;;;4.93;2.27;;;10.20;99.90;;;;;;5052980;28;20258;-77
2023/11/16 07:32:15;;;;;;;4.40;3.17;;;10.30;99.90;;;;;;5052938;28;20180;-75
2023/11/16 07:34:44;;;;;;;2.93;2.57;;;10.20;99.90;;;;;;5053294;28;20171;-75
2023/11/16 07:37:11;;;;;;;3.43;2.30;;;10.20;99.90;;;;;;5053178;28;20165;-75
2023/11/16 07:39:37;;;;;;;6.63;3.20;;;10.20;99.90;;;;;;5053250;28;20464;-76
2023/11/16 07:42:03;;;;;;;13.93;3.80;;;10.20;99.90;;;;;;5053322;28;20512;-75
2023/11/16 07:44:28;;;;;;;27.70;5.10;;;10.10;99.90;;;;;;5053127;28;20907;-75
2023/11/16 07:46:54;;;;;;;15.30;3.73;;;10.10;99.90;;;;;;5053133;28;20159;-75
2023/11/16 07:49:21;;;;;;;20.43;4.60;;;10.30;99.90;;;;;;5053176;28;20730;-75
2023/11/16 07:51:46;;;;;;;7.73;2.77;;;10.50;99.90;;;;;;5053691;28;20176;-76
2023/11/16 07:54:14;;;;;;;6.87;2.67;;;10.60;99.90;;;;;;5053071;28;20488;-76
2023/11/16 07:56:49;;;;;;;7.80;3.37;;;10.70;99.90;;;;;;5053347;28;20565;-75
2023/11/16 07:59:18;;;;;;;10.27;3.33;;;10.80;99.90;;;;;;5056200;28;20457;-76
2023/11/16 08:01:50;;;;;;;21.67;5.70;;;10.90;99.90;;;;;;5070724;28;20397;-76
2023/11/16 08:04:16;;;;;;;28.50;6.90;;;10.90;99.90;;;;;;5074212;28;20392;-75
2023/11/16 08:06:42;;;;;;;14.00;5.53;;;10.90;99.90;;;;;;5074567;28;20482;-75
2023/11/16 08:09:09;;;;;;;8.50;4.53;;;11.00;99.90;;;;;;5074504;28;20932;-78
2023/11/16 08:11:36;;;;;;;11.30;5.47;;;11.10;99.90;;;;;;5074185;28;20473;-75
2023/11/16 08:14:06;;;;;;;22.13;5.73;;;11.20;99.90;;;;;;5075646;28;20431;-78
2023/11/16 08:16:34;;;;;;;11.43;4.10;;;11.20;99.90;;;;;;5073179;28;20425;-78
2023/11/16 08:19:02;;;;;;;9.73;3.70;;;11.30;99.90;;;;;;5074704;28;20446;-78
2023/11/16 08:21:28;;;;;;;5.27;3.50;;;11.20;99.90;;;;;;5069842;28;20414;-76
2023/11/16 08:23:55;;;;;;;6.43;2.90;;;11.10;99.90;;;;;;5071973;28;20400;-78
2023/11/16 08:26:21;;;;;;;7.57;3.70;;;11.20;99.90;;;;;;5064476;28;20201;-76
2023/11/16 08:28:48;;;;;;;5.07;2.50;;;11.20;99.90;;;;;;5052550;28;20511;-77
2023/11/16 08:31:14;;;;;;;7.80;2.80;;;11.30;99.90;;;;;;5051079;28;20190;-76
2023/11/16 08:33:42;;;;;;;6.93;2.87;;;11.40;99.90;;;;;;5052647;28;20463;-82
2023/11/16 08:36:10;;;;;;;6.73;2.50;;;11.50;99.90;;;;;;5055979;28;20422;-80
2023/11/16 08:38:41;;;;;;;5.00;2.43;;;11.60;99.90;;;;;;5058255;28;20462;-81
2023/11/16 08:41:10;;;;;;;6.03;2.40;;;11.60;99.90;;;;;;5059776;28;20970;-80
2023/11/16 08:43:35;;;;;;;6.50;3.47;;;11.50;99.90;;;;;;5061230;28;20409;-80
2023/11/16 08:46:02;;;;;;;6.97;3.00;;;11.40;99.90;;;;;;5060800;28;20410;-80
2023/11/16 08:48:32;;;;;;;6.73;3.53;;;11.50;99.90;;;;;;5061081;28;20530;-80
2023/11/16 08:51:07;;;;;;;4.23;2.80;;;11.50;99.90;;;;;;5059388;28;20441;-79
2023/11/16 08:53:35;;;;;;;7.20;3.90;;;11.70;99.90;;;;;;5059988;28;20390;-81
2023/11/16 08:56:04;;;;;;;5.60;2.80;;;11.80;99.90;;;;;;5059920;28;20411;-78
2023/11/16 08:58:36;;;;;;;2.60;2.20;;;11.60;99.90;;;;;;5057944;28;20421;-77
2023/11/16 09:01:03;;;;;;;2.30;2.03;;;11.80;99.90;;;;;;5058688;28;20449;-76
2023/11/16 09:03:33;;;;;;;3.83;2.50;;;12.00;99.90;;;;;;5055917;28;20411;-75
2023/11/16 09:06:05;;;;;;;7.30;3.97;;;12.20;99.90;;;;;;5057830;28;20400;-77
2023/11/16 09:08:37;;;;;;;4.20;2.30;;;12.00;99.90;;;;;;5056027;28;20425;-77
2023/11/16 09:11:03;;;;;;;8.73;3.50;;;11.90;99.90;;;;;;5056124;28;20393;-76
2023/11/16 09:13:29;;;;;;;8.80;3.07;;;12.00;99.90;;;;;;5055747;28;20416;-75
2023/11/16 09:15:55;;;;;;;7.53;2.20;;;12.20;99.90;;;;;;5054850;28;20479;-76
2023/11/16 09:18:25;;;;;;;4.27;2.30;;;12.40;99.90;;;;;;5056056;28;20953;-77
2023/11/16 09:20:51;;;;;;;6.00;2.77;;;12.50;99.90;;;;;;5058764;28;20184;-79
2023/11/16 09:23:17;;;;;;;3.57;1.90;;;12.10;99.90;;;;;;5064334;28;20492;-78
2023/11/16 09:25:45;;;;;;;3.53;2.57;;;12.20;99.90;;;;;;5058594;28;20405;-77
2023/11/16 09:28:11;;;;;;;4.67;2.00;;;12.40;99.90;;;;;;5058321;28;20471;-78
2023/11/16 09:30:43;;;;;;;6.60;2.97;;;12.60;99.90;;;;;;5062136;28;20448;-78
2023/11/16 09:33:09;;;;;;;7.93;2.50;;;12.70;99.90;;;;;;5056845;28;20894;-75
2023/11/16 09:35:38;;;;;;;5.43;2.93;;;12.80;99.90;;;;;;5055018;28;20423;-79
2023/11/16 09:38:08;;;;;;;5.03;2.40;;;12.80;99.90;;;;;;5060517;23;20486;-72
2023/11/16 09:40:35;;;;;;;4.27;2.13;;;12.80;99.90;;;;;;5015507;28;20493;-72
2023/11/16 09:43:16;;;;;;;4.10;1.93;;;12.50;99.90;;;;;;5015610;28;20477;-72
2023/11/16 09:45:47;;;;;;;3.57;2.10;;;12.20;99.90;;;;;;5015847;28;20381;-74
2023/11/16 09:48:14;;;;;;;4.23;2.23;;;12.50;99.90;;;;;;5012483;28;20462;-72
2023/11/16 09:50:48;;;;;;;1.80;1.50;;;12.70;99.90;;;;;;4987663;28;20493;-72
2023/11/16 09:53:18;;;;;;;4.23;1.97;;;12.70;99.90;;;;;;4976313;28;20408;-71
2023/11/16 09:56:04;;;;;;;9.37;2.33;;;12.50;99.90;;;;;;4976185;28;20922;-71
2023/11/16 09:58:36;;;;;;;3.00;2.03;;;12.40;99.90;;;;;;4976504;28;20515;-76
2023/11/16 10:01:05;;;;;;;5.17;2.90;;;12.20;99.90;;;;;;4988216;28;20512;-77
2023/11/16 10:03:34;;;;;;;5.43;2.40;;;12.10;99.90;;;;;;4996069;28;20407;-75
2023/11/16 10:06:03;;;;;;;5.10;2.23;;;12.20;99.90;;;;;;4995625;28;20411;-72
2023/11/16 10:08:29;;;;;;;2.57;1.60;;;12.10;99.90;;;;;;4995580;28;20428;-72
2023/11/16 10:11:00;;;;;;;3.37;1.70;;;12.30;99.90;;;;;;4986072;28;20406;-74
2023/11/16 10:13:27;;;;;;;4.73;1.67;;;12.30;99.90;;;;;;4991054;28;20246;-72
2023/11/16 10:15:54;;;;;;;4.17;1.80;;;12.10;99.90;;;;;;4975820;28;20415;-73
2023/11/16 10:18:21;;;;;;;2.53;1.30;;;12.00;99.90;;;;;;4975927;28;20796;-74
2023/11/16 10:20:47;;;;;;;5.03;2.03;;;12.20;99.90;;;;;;4984091;28;20863;-75
2023/11/16 10:23:13;;;;;;;3.53;1.83;;;12.20;99.90;;;;;;4995186;28;20414;-74
2023/11/16 10:25:40;;;;;;;8.10;2.00;;;12.30;99.90;;;;;;4994503;28;20464;-74
2023/11/16 10:28:19;;;;;;;4.30;2.27;;;12.20;99.90;;;;;;4995253;28;20963;-73
2023/11/16 10:30:54;;;;;;;5.87;1.80;;;12.10;99.90;;;;;;4985812;28;20501;-74
2023/11/16 10:33:23;;;;;;;3.10;2.10;;;12.10;99.90;;;;;;4992827;28;20503;-76
2023/11/16 10:35:51;;;;;;;2.50;2.00;;;12.20;99.90;;;;;;4995345;28;20415;-76
2023/11/16 10:38:18;;;;;;;6.60;2.30;;;12.00;99.90;;;;;;4995048;28;20931;-76
2023/11/16 10:40:47;;;;;;;5.43;2.00;;;12.00;99.90;;;;;;4987409;28;20783;-76
2023/11/16 10:43:18;;;;;;;4.40;1.93;;;12.00;99.90;;;;;;4976006;28;20407;-77
2023/11/16 10:45:44;;;;;;;4.93;1.90;;;12.10;99.90;;;;;;4975602;28;20388;-76
2023/11/16 10:48:13;;;;;;;2.93;1.73;;;12.30;99.90;;;;;;4975578;28;20406;-74
2023/11/16 10:50:41;;;;;;;7.40;2.40;;;12.30;99.90;;;;;;4982154;28;20419;-73
2023/11/16 10:53:14;;;;;;;4.00;2.60;;;12.10;99.90;;;;;;4993192;28;20928;-73
2023/11/16 10:55:42;;;;;;;6.10;2.50;;;12.20;99.90;;;;;;4994892;28;20451;-74
2023/11/16 10:58:09;;;;;;;4.37;2.70;;;12.30;99.90;;;;;;4994469;28;20408;-73
2023/11/16 11:00:36;;;;;;;5.10;2.50;;;12.40;99.90;;;;;;4986909;28;20461;-73
2023/11/16 11:03:05;;;;;;;5.37;2.50;;;12.10;99.90;;;;;;4975328;28;20411;-75
2023/11/16 11:05:31;;;;;;;3.70;2.10;;;12.10;99.90;;;;;;4975274;28;20773;-73
2023/11/16 11:07:57;;;;;;;4.97;2.40;;;12.00;99.90;;;;;;4975109;28;20417;-73
2023/11/16 11:10:27;;;;;;;5.47;2.10;;;12.10;99.90;;;;;;4979254;28;20171;-72
2023/11/16 11:12:56;;;;;;;5.40;2.10;;;12.10;99.90;;;;;;4993474;28;20521;-73
2023/11/16 11:15:40;;;;;;;3.80;2.00;;;12.30;99.90;;;;;;4994559;28;20500;-74
2023/11/16 11:18:06;;;;;;;5.33;2.00;;;12.40;99.90;;;;;;4994299;28;20404;-74
2023/11/16 11:20:44;;;;;;;4.20;2.07;;;12.30;99.90;;;;;;4992929;28;20454;-70
2023/11/16 11:23:18;;;;;;;5.37;2.47;;;12.30;99.90;;;;;;4978431;28;20471;-71
2023/11/16 11:25:44;;;;;;;3.53;1.87;;;12.10;99.90;;;;;;4974812;28;20423;-72
2023/11/16 11:28:13;;;;;;;5.37;2.87;;;12.20;99.90;;;;;;4973058;28;20415;-72
2023/11/16 11:30:54;;;;;;;4.23;2.63;;;12.40;99.90;;;;;;4974617;28;20848;-71
2023/11/16 11:33:43;;;;;;;6.57;2.30;;;12.70;99.90;;;;;;4988159;28;20796;-72
2023/11/16 11:36:11;;;;;;;5.00;2.50;;;12.90;99.90;;;;;;4994288;28;20478;-73
2023/11/16 11:38:42;;;;;;;4.57;2.37;;;12.90;99.90;;;;;;4992372;28;20995;-71
2023/11/16 11:41:12;;;;;;;5.37;2.83;;;13.10;99.90;;;;;;4994033;28;20461;-72
2023/11/16 11:43:40;;;;;;;6.77;3.87;;;13.10;99.90;;;;;;4974723;28;20893;-72
2023/11/16 11:46:10;;;;;;;9.27;4.43;;;12.80;99.90;;;;;;4974556;28;20405;-73
2023/11/16 11:48:36;;;;;;;5.10;3.73;;;12.60;99.90;;;;;;4974439;28;20435;-72
2023/11/16 11:51:29;;;;;;;7.70;4.37;;;12.70;99.90;;;;;;4972914;28;20469;-72
2023/11/16 11:53:55;;;;;;;7.30;4.23;;;12.70;99.90;;;;;;4974794;28;20747;-72
2023/11/16 11:56:21;;;;;;;8.67;5.60;;;12.70;99.90;;;;;;4974416;28;20407;-72
2023/11/16 11:58:47;;;;;;;6.97;5.20;;;12.60;99.90;;;;;;4974123;28;20518;-72
2023/11/16 12:01:12;;;;;;;12.90;6.30;;;12.60;99.90;;;;;;4974080;28;20698;-73
2023/11/16 12:03:52;;;;;;;9.50;5.27;;;12.50;99.90;;;;;;4992287;28;20749;-73
2023/11/16 12:06:18;;;;;;;8.20;5.10;;;12.40;99.90;;;;;;4993651;28;20255;-72
2023/11/16 12:08:51;;;;;;;6.73;5.20;;;12.10;99.90;;;;;;4993316;28;20420;-73
2023/11/16 12:11:18;;;;;;;9.20;5.70;;;12.20;99.90;;;;;;4993819;28;20386;-72
2023/11/16 12:13:44;;;;;;;8.50;5.63;;;12.30;99.90;;;;;;4977839;28;20409;-73
2023/11/16 12:16:12;;;;;;;6.43;4.93;;;12.70;99.90;;;;;;4976974;28;20422;-71
2023/11/16 12:18:41;;;;;;;11.20;5.60;;;12.40;99.90;;;;;;4978228;28;20808;-72
2023/11/16 12:21:14;;;;;;;9.20;5.70;;;12.20;99.90;;;;;;4977774;28;20961;-72
2023/11/16 12:23:49;;;;;;;5.77;5.17;;;12.30;99.90;;;;;;4997408;28;20403;-72
2023/11/16 12:26:22;;;;;;;8.23;5.30;;;12.40;99.90;;;;;;4997372;28;20381;-73
2023/11/16 12:28:48;;;;;;;8.23;5.40;;;12.30;99.90;;;;;;4997192;28;20422;-73
2023/11/16 12:31:17;;;;;;;9.63;5.97;;;12.30;99.90;;;;;;4985634;28;20775;-73
2023/11/16 12:33:44;;;;;;;9.40;4.97;;;12.20;99.90;;;;;;4996878;28;20719;-74
2023/11/16 12:36:11;;;;;;;6.87;5.00;;;11.90;99.90;;;;;;4997442;28;20411;-72
2023/11/16 12:38:37;;;;;;;8.00;4.93;;;11.70;99.90;;;;;;4995629;28;20466;-74
2023/11/16 12:41:05;;;;;;;7.50;4.50;;;11.70;99.90;;;;;;4997049;28;20828;-73
2023/11/16 12:43:31;;;;;;;9.23;4.80;;;11.90;99.90;;;;;;4980086;28;20514;-72
2023/11/16 12:45:58;;;;;;;6.10;5.40;;;11.90;99.90;;;;;;4977536;28;20926;-71
2023/11/16 12:48:25;;;;;;;10.97;5.63;;;11.80;99.90;;;;;;4977628;28;20198;-73
2023/11/16 12:50:52;;;;;;;7.50;5.23;;;11.90;99.90;;;;;;4977436;28;20400;-73
2023/11/16 12:53:17;;;;;;;8.73;4.80;;;11.90;99.90;;;;;;4992951;28;20440;-73